createdAt,value
2019-02-23T00:00:30.354Z,7.22
2019-02-23T00:01:30.338Z,7.24
2019-02-23T00:02:30.335Z,7.08
2019-02-23T00:03:30.325Z,7.08
2019-02-23T00:04:33.041Z,7.10
2019-02-23T00:05:30.329Z,7.13
2019-02-23T00:06:30.354Z,7.10
2019-02-23T00:07:30.286Z,7.13
2019-02-23T00:08:30.276Z,7.15
2019-02-23T00:09:30.267Z,7.10
2019-02-23T00:10:30.256Z,7.15
2019-02-23T00:11:30.250Z,7.08
2019-02-23T00:12:30.236Z,6.99
2019-02-23T00:13:30.221Z,7.04
2019-02-23T00:14:30.210Z,7.06
2019-02-23T00:15:30.279Z,7.01
2019-02-23T00:16:30.206Z,6.92
2019-02-23T00:17:30.194Z,6.97
2019-02-23T00:18:30.177Z,6.88
2019-02-23T00:19:30.160Z,6.89
2019-02-23T00:20:30.155Z,6.92
2019-02-23T00:21:30.146Z,6.89
2019-02-23T00:22:30.135Z,6.83
2019-02-23T00:23:30.145Z,6.86
2019-02-23T00:24:30.126Z,6.73
2019-02-23T00:25:30.116Z,6.86
2019-02-23T00:26:30.091Z,6.82
2019-02-23T00:27:30.087Z,6.79
2019-02-23T00:28:30.079Z,6.89
2019-02-23T00:29:30.069Z,6.88
2019-02-23T00:30:30.052Z,6.86
2019-02-23T00:31:30.051Z,6.83
2019-02-23T00:32:30.035Z,6.79
2019-02-23T00:33:30.033Z,6.88
2019-02-23T00:34:30.022Z,6.83
2019-02-23T00:35:30.004Z,6.85
2019-02-23T00:36:29.993Z,6.89
2019-02-23T00:37:29.985Z,6.88
2019-02-23T00:38:29.976Z,6.79
2019-02-23T00:39:29.968Z,6.81
2019-02-23T00:40:29.957Z,6.81
2019-02-23T00:41:29.949Z,6.78
2019-02-23T00:42:29.939Z,6.79
2019-02-23T00:43:29.927Z,6.81
2019-02-23T00:44:29.918Z,6.73
2019-02-23T00:45:30.547Z,6.71
2019-02-23T00:46:29.899Z,6.75
2019-02-23T00:47:29.885Z,6.71
2019-02-23T00:48:29.874Z,6.70
2019-02-23T00:49:36.361Z,6.67
2019-02-23T00:50:29.864Z,6.75
2019-02-23T00:51:29.847Z,6.64
2019-02-23T00:52:29.842Z,6.73
2019-02-23T00:53:29.824Z,6.67
2019-02-23T00:54:29.816Z,6.65
2019-02-23T00:55:29.888Z,6.60
2019-02-23T00:56:29.798Z,6.56
2019-02-23T00:57:29.785Z,6.60
2019-02-23T00:58:29.776Z,6.46
2019-02-23T00:59:29.763Z,6.53
2019-02-23T01:00:29.770Z,6.45
2019-02-23T01:01:29.763Z,6.50
2019-02-23T01:02:29.736Z,6.45
2019-02-23T01:03:29.727Z,6.46
2019-02-23T01:04:29.716Z,6.42
2019-02-23T01:05:29.694Z,6.43
2019-02-23T01:06:29.693Z,6.42
2019-02-23T01:07:29.689Z,6.50
2019-02-23T01:08:29.673Z,6.47
2019-02-23T01:09:29.662Z,6.45
2019-02-23T01:10:29.651Z,6.50
2019-02-23T01:11:29.641Z,6.38
2019-02-23T01:12:29.630Z,6.38
2019-02-23T01:13:29.643Z,6.43
2019-02-23T01:14:29.616Z,6.42
2019-02-23T01:15:29.606Z,6.56
2019-02-23T01:16:29.595Z,6.42
2019-02-23T01:17:29.578Z,6.53
2019-02-23T01:18:29.574Z,6.60
2019-02-23T01:19:29.554Z,6.60
2019-02-23T01:20:29.548Z,6.56
2019-02-23T01:21:29.551Z,6.60
2019-02-23T01:22:29.533Z,6.56
2019-02-23T01:23:29.523Z,6.56
2019-02-23T01:24:29.522Z,6.65
2019-02-23T01:25:29.499Z,6.65
2019-02-23T01:26:29.489Z,6.64
2019-02-23T01:27:29.495Z,6.65
2019-02-23T01:28:29.475Z,6.64
2019-02-23T01:29:29.456Z,6.65
2019-02-23T01:30:29.447Z,6.70
2019-02-23T01:31:29.431Z,6.63
2019-02-23T01:32:29.426Z,6.67
2019-02-23T01:33:29.419Z,6.79
2019-02-23T01:34:29.415Z,6.73
2019-02-23T01:35:29.399Z,6.71
2019-02-23T01:36:29.389Z,6.70
2019-02-23T01:37:29.380Z,6.81
2019-02-23T01:38:29.373Z,6.82
2019-02-23T01:39:29.358Z,6.73
2019-02-23T01:40:29.344Z,6.89
2019-02-23T01:41:29.337Z,6.81
2019-02-23T01:42:29.332Z,6.89
2019-02-23T01:43:29.314Z,6.91
2019-02-23T01:44:29.303Z,6.91
2019-02-23T01:45:29.302Z,6.97
2019-02-23T01:46:29.288Z,6.91
2019-02-23T01:47:29.280Z,6.99
2019-02-23T01:48:29.268Z,7.01
2019-02-23T01:49:29.252Z,7.01
2019-02-23T01:50:29.243Z,7.03
2019-02-23T01:51:29.235Z,7.00
2019-02-23T01:52:29.227Z,7.06
2019-02-23T01:53:29.210Z,7.08
2019-02-23T01:54:29.207Z,7.11
2019-02-23T01:55:29.193Z,7.10
2019-02-23T01:56:29.181Z,7.16
2019-02-23T01:57:29.173Z,7.13
2019-02-23T01:58:29.170Z,7.16
2019-02-23T01:59:29.150Z,7.24
2019-02-23T02:00:29.141Z,7.21
2019-02-23T02:01:29.130Z,7.08
2019-02-23T02:02:29.125Z,7.24
2019-02-23T02:03:29.118Z,7.18
2019-02-23T02:04:29.115Z,7.08
2019-02-23T02:05:29.091Z,7.08
2019-02-23T02:06:29.081Z,7.15
2019-02-23T02:07:29.072Z,7.08
2019-02-23T02:08:29.063Z,7.15
2019-02-23T02:09:29.053Z,7.08
2019-02-23T02:10:29.042Z,7.15
2019-02-23T02:11:29.034Z,7.10
2019-02-23T02:12:29.024Z,7.13
2019-02-23T02:13:29.008Z,7.15
2019-02-23T02:14:29.000Z,7.22
2019-02-23T02:15:28.993Z,7.21
2019-02-23T02:16:28.983Z,7.21
2019-02-23T02:17:28.969Z,7.11
2019-02-23T02:18:28.962Z,7.18
2019-02-23T02:19:28.950Z,7.25
2019-02-23T02:20:28.939Z,7.13
2019-02-23T02:21:28.938Z,7.19
2019-02-23T02:22:28.920Z,7.11
2019-02-23T02:23:28.912Z,7.24
2019-02-23T02:24:28.903Z,7.08
2019-02-23T02:25:28.889Z,7.16
2019-02-23T02:26:28.879Z,7.18
2019-02-23T02:27:28.870Z,7.13
2019-02-23T02:28:28.861Z,7.06
2019-02-23T02:29:28.849Z,7.06
2019-02-23T02:30:28.838Z,7.15
2019-02-23T02:31:28.833Z,7.10
2019-02-23T02:32:28.820Z,7.11
2019-02-23T02:33:28.813Z,7.15
2019-02-23T02:34:28.800Z,7.15
2019-02-23T02:35:28.790Z,7.10
2019-02-23T02:36:28.781Z,7.07
2019-02-23T02:37:28.765Z,7.08
2019-02-23T02:38:28.758Z,7.13
2019-02-23T02:39:28.757Z,7.07
2019-02-23T02:40:28.756Z,7.11
2019-02-23T02:41:28.726Z,7.04
2019-02-23T02:42:28.720Z,7.03
2019-02-23T02:43:28.722Z,7.06
2019-02-23T02:44:28.701Z,7.04
2019-02-23T02:45:28.689Z,7.10
2019-02-23T02:46:28.678Z,7.06
2019-02-23T02:47:28.670Z,7.04
2019-02-23T02:48:28.662Z,7.04
2019-02-23T02:49:28.650Z,7.03
2019-02-23T02:50:28.638Z,7.00
2019-02-23T02:51:28.635Z,6.96
2019-02-23T02:52:28.621Z,7.01
2019-02-23T02:53:28.610Z,6.83
2019-02-23T02:54:28.600Z,6.92
2019-02-23T02:55:28.594Z,6.88
2019-02-23T02:56:28.594Z,6.93
2019-02-23T02:57:28.566Z,6.83
2019-02-23T02:58:28.557Z,6.83
2019-02-23T02:59:28.549Z,6.83
2019-02-23T03:00:28.536Z,6.83
2019-02-23T03:01:28.539Z,6.86
2019-02-23T03:02:28.517Z,6.97
2019-02-23T03:03:28.506Z,6.91
2019-02-23T03:04:28.494Z,6.91
2019-02-23T03:05:28.489Z,7.00
2019-02-23T03:06:28.480Z,6.97
2019-02-23T03:07:28.470Z,6.86
2019-02-23T03:08:28.457Z,6.89
2019-02-23T03:09:28.446Z,6.93
2019-02-23T03:10:28.434Z,6.89
2019-02-23T03:11:28.432Z,6.83
2019-02-23T03:12:28.413Z,6.78
2019-02-23T03:13:28.408Z,6.79
2019-02-23T03:14:28.405Z,6.79
2019-02-23T03:15:28.383Z,6.81
2019-02-23T03:16:28.382Z,6.75
2019-02-23T03:17:28.366Z,6.81
2019-02-23T03:18:28.367Z,6.79
2019-02-23T03:19:28.347Z,6.85
2019-02-23T03:20:36.287Z,6.85
2019-02-23T03:21:28.322Z,6.83
2019-02-23T03:22:28.314Z,6.74
2019-02-23T03:23:28.302Z,6.82
2019-02-23T03:24:28.291Z,6.81
2019-02-23T03:25:28.285Z,6.83
2019-02-23T03:26:28.272Z,6.81
2019-02-23T03:27:28.263Z,6.82
2019-02-23T03:28:28.256Z,6.85
2019-02-23T03:29:28.244Z,6.79
2019-02-23T03:30:28.237Z,6.74
2019-02-23T03:31:28.223Z,6.71
2019-02-23T03:32:28.224Z,6.79
2019-02-23T03:33:28.239Z,6.79
2019-02-23T03:34:28.190Z,6.79
2019-02-23T03:35:28.179Z,6.81
2019-02-23T03:36:28.307Z,6.74
2019-02-23T03:37:28.161Z,6.70
2019-02-23T03:38:28.150Z,6.82
2019-02-23T03:39:28.142Z,6.79
2019-02-23T03:40:28.144Z,6.79
2019-02-23T03:41:28.116Z,6.81
2019-02-23T03:42:28.110Z,6.82
2019-02-23T03:43:28.102Z,6.83
2019-02-23T03:44:28.086Z,6.79
2019-02-23T03:45:28.079Z,6.86
2019-02-23T03:46:28.072Z,6.82
2019-02-23T03:47:28.059Z,6.86
2019-02-23T03:48:28.152Z,6.82
2019-02-23T03:49:28.037Z,6.96
2019-02-23T03:50:28.029Z,6.89
2019-02-23T03:51:28.015Z,6.89
2019-02-23T03:52:28.015Z,6.89
2019-02-23T03:53:28.000Z,6.96
2019-02-23T03:54:27.989Z,7.06
2019-02-23T03:55:27.976Z,7.03
2019-02-23T03:56:27.965Z,7.08
2019-02-23T03:57:27.955Z,7.08
2019-02-23T03:58:27.948Z,7.16
2019-02-23T03:59:27.941Z,7.21
2019-02-23T04:00:27.933Z,7.13
2019-02-23T04:01:27.915Z,7.19
2019-02-23T04:02:27.907Z,7.25
2019-02-23T04:03:27.894Z,7.25
2019-02-23T04:04:27.885Z,7.21
2019-02-23T04:05:27.878Z,7.25
2019-02-23T04:06:27.874Z,7.22
2019-02-23T04:07:27.856Z,7.15
2019-02-23T04:08:27.853Z,7.29
2019-02-23T04:09:27.843Z,7.39
2019-02-23T04:10:27.823Z,7.29
2019-02-23T04:11:27.819Z,7.31
2019-02-23T04:12:27.818Z,7.34
2019-02-23T04:13:27.796Z,7.34
2019-02-23T04:14:27.787Z,7.31
2019-02-23T04:15:27.773Z,7.39
2019-02-23T04:16:27.768Z,7.31
2019-02-23T04:17:27.759Z,7.34
2019-02-23T04:18:27.754Z,7.36
2019-02-23T04:19:27.742Z,7.34
2019-02-23T04:20:27.730Z,7.37
2019-02-23T04:21:27.717Z,7.34
2019-02-23T04:22:27.707Z,7.46
2019-02-23T04:23:27.699Z,7.36
2019-02-23T04:24:27.692Z,7.31
2019-02-23T04:25:27.680Z,7.40
2019-02-23T04:26:27.668Z,7.33
2019-02-23T04:27:27.660Z,7.33
2019-02-23T04:28:27.649Z,7.37
2019-02-23T04:29:27.656Z,7.43
2019-02-23T04:30:27.632Z,7.31
2019-02-23T04:31:27.624Z,7.37
2019-02-23T04:32:27.621Z,7.34
2019-02-23T04:33:27.599Z,7.31
2019-02-23T04:34:27.595Z,7.36
2019-02-23T04:35:27.634Z,7.31
2019-02-23T04:36:27.574Z,7.34
2019-02-23T04:37:27.623Z,7.33
2019-02-23T04:38:27.553Z,7.28
2019-02-23T04:39:27.545Z,7.29
2019-02-23T04:40:27.528Z,7.33
2019-02-23T04:41:27.525Z,7.31
2019-02-23T04:42:27.515Z,7.33
2019-02-23T04:43:27.510Z,7.28
2019-02-23T04:44:27.494Z,7.31
2019-02-23T04:45:27.486Z,7.34
2019-02-23T04:46:27.480Z,7.28
2019-02-23T04:47:27.468Z,7.33
2019-02-23T04:48:27.453Z,7.26
2019-02-23T04:49:27.451Z,7.37
2019-02-23T04:50:27.437Z,7.31
2019-02-23T04:51:27.427Z,7.29
2019-02-23T04:52:27.425Z,7.39
2019-02-23T04:53:27.448Z,7.33
2019-02-23T04:54:27.396Z,7.37
2019-02-23T04:55:27.393Z,7.26
2019-02-23T04:56:27.379Z,7.29
2019-02-23T04:57:27.365Z,7.31
2019-02-23T04:58:27.362Z,7.28
2019-02-23T04:59:27.350Z,7.22
2019-02-23T05:00:27.339Z,7.31
2019-02-23T05:01:27.351Z,7.33
2019-02-23T05:02:27.329Z,7.37
2019-02-23T05:03:27.305Z,7.21
2019-02-23T05:04:27.305Z,7.33
2019-02-23T05:05:27.290Z,7.26
2019-02-23T05:06:27.283Z,7.29
2019-02-23T05:07:27.270Z,7.22
2019-02-23T05:08:27.254Z,7.25
2019-02-23T05:09:27.249Z,7.29
2019-02-23T05:10:27.248Z,7.28
2019-02-23T05:11:27.230Z,7.33
2019-02-23T05:12:27.223Z,7.36
2019-02-23T05:13:27.212Z,7.24
2019-02-23T05:14:27.203Z,7.33
2019-02-23T05:15:27.195Z,7.29
2019-02-23T05:16:27.185Z,7.37
2019-02-23T05:17:27.173Z,7.37
2019-02-23T05:18:27.164Z,7.44
2019-02-23T05:19:27.156Z,7.44
2019-02-23T05:20:27.136Z,7.40
2019-02-23T05:21:27.175Z,7.40
2019-02-23T05:22:27.131Z,7.40
2019-02-23T05:23:27.121Z,7.40
2019-02-23T05:24:27.113Z,7.36
2019-02-23T05:25:27.094Z,7.42
2019-02-23T05:26:27.094Z,7.49
2019-02-23T05:27:27.077Z,7.43
2019-02-23T05:28:27.066Z,7.46
2019-02-23T05:29:27.057Z,7.50
2019-02-23T05:30:27.051Z,7.57
2019-02-23T05:31:27.034Z,7.54
2019-02-23T05:32:27.027Z,7.58
2019-02-23T05:33:27.021Z,7.54
2019-02-23T05:34:27.009Z,7.52
2019-02-23T05:35:27.002Z,7.55
2019-02-23T05:36:26.997Z,7.57
2019-02-23T05:37:26.975Z,7.55
2019-02-23T05:38:26.966Z,7.54
2019-02-23T05:39:26.961Z,7.60
2019-02-23T05:40:26.952Z,7.57
2019-02-23T05:41:26.943Z,7.57
2019-02-23T05:42:26.947Z,7.58
2019-02-23T05:43:26.921Z,7.55
2019-02-23T05:44:26.916Z,7.57
2019-02-23T05:45:26.909Z,7.57
2019-02-23T05:46:26.896Z,7.58
2019-02-23T05:47:26.885Z,7.54
2019-02-23T05:48:26.876Z,7.60
2019-02-23T05:49:26.865Z,7.58
2019-02-23T05:50:26.852Z,7.60
2019-02-23T05:51:38.113Z,7.64
2019-02-23T05:52:26.833Z,7.64
2019-02-23T05:53:26.829Z,7.60
2019-02-23T05:54:26.817Z,7.58
2019-02-23T05:55:26.810Z,7.66
2019-02-23T05:56:26.806Z,7.58
2019-02-23T05:57:26.796Z,7.61
2019-02-23T05:58:26.785Z,7.61
2019-02-23T05:59:26.775Z,7.68
2019-02-23T06:00:26.768Z,7.64
2019-02-23T06:01:26.753Z,7.57
2019-02-23T06:02:26.742Z,7.62
2019-02-23T06:03:26.732Z,7.58
2019-02-23T06:04:26.723Z,7.55
2019-02-23T06:05:26.715Z,7.58
2019-02-23T06:06:26.711Z,7.52
2019-02-23T06:07:26.698Z,7.54
2019-02-23T06:08:26.691Z,7.60
2019-02-23T06:09:26.682Z,7.54
2019-02-23T06:10:26.672Z,7.60
2019-02-23T06:11:26.655Z,7.57
2019-02-23T06:12:26.645Z,7.60
2019-02-23T06:13:26.639Z,7.54
2019-02-23T06:14:26.636Z,7.57
2019-02-23T06:15:26.618Z,7.54
2019-02-23T06:16:26.616Z,7.52
2019-02-23T06:17:26.612Z,7.42
2019-02-23T06:18:26.607Z,7.43
2019-02-23T06:19:26.583Z,7.37
2019-02-23T06:20:26.581Z,7.33
2019-02-23T06:21:26.562Z,7.34
2019-02-23T06:22:26.557Z,7.36
2019-02-23T06:23:26.542Z,7.26
2019-02-23T06:24:26.543Z,7.33
2019-02-23T06:25:26.526Z,7.36
2019-02-23T06:26:26.521Z,7.33
2019-02-23T06:27:26.507Z,7.33
2019-02-23T06:28:26.492Z,7.36
2019-02-23T06:29:26.484Z,7.36
2019-02-23T06:30:26.475Z,7.31
2019-02-23T06:31:26.473Z,7.28
2019-02-23T06:32:26.457Z,7.21
2019-02-23T06:33:26.452Z,7.16
2019-02-23T06:34:26.436Z,7.19
2019-02-23T06:35:26.428Z,7.22
2019-02-23T06:36:26.418Z,7.21
2019-02-23T06:37:26.411Z,7.13
2019-02-23T06:38:26.400Z,7.16
2019-02-23T06:39:26.389Z,7.13
2019-02-23T06:40:26.387Z,7.11
2019-02-23T06:41:26.371Z,7.15
2019-02-23T06:42:26.360Z,7.11
2019-02-23T06:43:26.350Z,7.11
2019-02-23T06:44:26.338Z,7.10
2019-02-23T06:45:26.335Z,7.04
2019-02-23T06:46:26.321Z,7.00
2019-02-23T06:47:26.310Z,7.04
2019-02-23T06:48:26.298Z,6.96
2019-02-23T06:49:26.290Z,7.03
2019-02-23T06:50:26.288Z,7.01
2019-02-23T06:51:26.271Z,7.04
2019-02-23T06:52:26.272Z,6.99
2019-02-23T06:53:26.247Z,7.04
2019-02-23T06:54:26.241Z,7.03
2019-02-23T06:55:26.230Z,6.99
2019-02-23T06:56:26.218Z,7.03
2019-02-23T06:57:26.220Z,6.97
2019-02-23T06:58:26.202Z,6.93
2019-02-23T06:59:26.194Z,7.06
2019-02-23T07:00:26.181Z,7.01
2019-02-23T07:01:26.169Z,7.03
2019-02-23T07:02:26.162Z,7.07
2019-02-23T07:03:26.166Z,6.99
2019-02-23T07:04:26.175Z,7.08
2019-02-23T07:05:26.132Z,7.10
2019-02-23T07:06:26.118Z,7.10
2019-02-23T07:07:26.110Z,7.11
2019-02-23T07:08:26.104Z,7.10
2019-02-23T07:09:26.093Z,7.13
2019-02-23T07:10:26.086Z,7.08
2019-02-23T07:11:26.073Z,7.11
2019-02-23T07:12:26.073Z,7.08
2019-02-23T07:13:26.052Z,7.15
2019-02-23T07:14:26.035Z,7.08
2019-02-23T07:15:26.033Z,7.15
2019-02-23T07:16:26.021Z,7.06
2019-02-23T07:17:26.021Z,7.15
2019-02-23T07:18:26.003Z,7.07
2019-02-23T07:19:25.992Z,7.13
2019-02-23T07:20:25.979Z,7.11
2019-02-23T07:21:25.974Z,7.13
2019-02-23T07:22:25.963Z,7.08
2019-02-23T07:23:25.954Z,7.08
2019-02-23T07:24:25.943Z,7.15
2019-02-23T07:25:25.930Z,7.10
2019-02-23T07:26:25.922Z,7.13
2019-02-23T07:27:25.910Z,7.01
2019-02-23T07:28:25.904Z,7.08
2019-02-23T07:29:25.903Z,7.04
2019-02-23T07:30:25.885Z,7.00
2019-02-23T07:31:25.877Z,7.00
2019-02-23T07:32:25.866Z,7.06
2019-02-23T07:33:32.734Z,7.01
2019-02-23T07:34:25.841Z,7.04
2019-02-23T07:35:25.834Z,7.00
2019-02-23T07:36:25.826Z,7.04
2019-02-23T07:37:25.813Z,7.11
2019-02-23T07:38:25.803Z,7.07
2019-02-23T07:39:25.793Z,7.13
2019-02-23T07:40:25.784Z,7.13
2019-02-23T07:41:25.785Z,7.08
2019-02-23T07:42:25.776Z,7.21
2019-02-23T07:43:25.764Z,7.21
2019-02-23T07:44:25.749Z,7.13
2019-02-23T07:45:25.733Z,7.22
2019-02-23T07:46:25.722Z,7.18
2019-02-23T07:47:25.715Z,7.22
2019-02-23T07:48:25.705Z,7.22
2019-02-23T07:49:25.704Z,7.29
2019-02-23T07:50:25.691Z,7.33
2019-02-23T07:51:25.681Z,7.40
2019-02-23T07:52:26.646Z,7.33
2019-02-23T07:53:25.654Z,7.37
2019-02-23T07:54:25.650Z,7.34
2019-02-23T07:55:25.639Z,7.31
2019-02-23T07:56:25.658Z,7.33
2019-02-23T07:57:25.616Z,7.34
2019-02-23T07:58:25.603Z,7.29
2019-02-23T07:59:25.599Z,7.37
2019-02-23T08:00:25.586Z,7.34
2019-02-23T08:01:25.588Z,7.42
2019-02-23T08:02:25.938Z,7.39
2019-02-23T08:03:25.562Z,7.36
2019-02-23T08:04:25.555Z,7.37
2019-02-23T08:05:25.539Z,7.40
2019-02-23T08:06:25.530Z,7.46
2019-02-23T08:07:25.523Z,7.52
2019-02-23T08:08:25.517Z,7.54
2019-02-23T08:09:25.502Z,7.55
2019-02-23T08:10:25.491Z,7.74
2019-02-23T08:11:25.483Z,7.61
2019-02-23T08:12:25.475Z,7.62
2019-02-23T08:13:25.472Z,7.74
2019-02-23T08:14:25.455Z,7.74
2019-02-23T08:15:25.445Z,7.76
2019-02-23T08:16:25.439Z,7.73
2019-02-23T08:17:25.426Z,7.77
2019-02-23T08:18:25.415Z,7.78
2019-02-23T08:19:25.411Z,7.71
2019-02-23T08:20:25.400Z,7.71
2019-02-23T08:21:25.390Z,7.69
2019-02-23T08:22:25.394Z,7.81
2019-02-23T08:23:25.361Z,7.76
2019-02-23T08:24:25.366Z,7.74
2019-02-23T08:25:25.355Z,7.68
2019-02-23T08:26:25.345Z,7.74
2019-02-23T08:27:25.335Z,7.78
2019-02-23T08:28:25.324Z,7.83
2019-02-23T08:29:25.314Z,7.88
2019-02-23T08:30:25.304Z,7.86
2019-02-23T08:31:25.299Z,7.84
2019-02-23T08:32:25.288Z,7.86
2019-02-23T08:33:25.281Z,7.80
2019-02-23T08:34:25.270Z,7.80
2019-02-23T08:35:25.261Z,7.91
2019-02-23T08:36:25.246Z,7.84
2019-02-23T08:37:25.248Z,7.84
2019-02-23T08:38:25.231Z,7.83
2019-02-23T08:39:25.236Z,7.84
2019-02-23T08:40:25.215Z,7.81
2019-02-23T08:41:25.205Z,7.83
2019-02-23T08:42:25.192Z,7.80
2019-02-23T08:43:25.196Z,7.74
2019-02-23T08:44:25.181Z,7.77
2019-02-23T08:45:25.168Z,7.87
2019-02-23T08:46:25.164Z,7.73
2019-02-23T08:47:25.154Z,7.86
2019-02-23T08:48:25.139Z,7.84
2019-02-23T08:49:25.130Z,7.96
2019-02-23T08:50:25.123Z,7.83
2019-02-23T08:51:25.110Z,7.87
2019-02-23T08:52:25.102Z,7.84
2019-02-23T08:53:25.112Z,7.87
2019-02-23T08:54:25.085Z,7.94
2019-02-23T08:55:25.082Z,7.91
2019-02-23T08:56:25.077Z,7.87
2019-02-23T08:57:25.059Z,7.96
2019-02-23T08:58:25.061Z,7.96
2019-02-23T08:59:25.042Z,7.99
2019-02-23T09:00:25.030Z,8.01
2019-02-23T09:01:25.022Z,8.17
2019-02-23T09:02:25.015Z,8.06
2019-02-23T09:03:25.000Z,8.12
2019-02-23T09:04:24.993Z,8.06
2019-02-23T09:05:24.987Z,8.06
2019-02-23T09:06:24.988Z,8.17
2019-02-23T09:07:25.047Z,8.17
2019-02-23T09:08:24.957Z,8.24
2019-02-23T09:09:24.946Z,8.21
2019-02-23T09:10:24.934Z,8.26
2019-02-23T09:11:24.931Z,8.21
2019-02-23T09:12:24.922Z,8.26
2019-02-23T09:13:24.902Z,8.24
2019-02-23T09:14:24.900Z,8.29
2019-02-23T09:15:24.908Z,8.29
2019-02-23T09:16:24.886Z,8.39
2019-02-23T09:17:24.883Z,8.37
2019-02-23T09:18:24.876Z,8.39
2019-02-23T09:19:24.864Z,8.32
2019-02-23T09:20:29.211Z,8.32
2019-02-23T09:21:24.837Z,8.37
2019-02-23T09:22:24.837Z,8.38
2019-02-23T09:23:24.819Z,8.29
2019-02-23T09:24:26.840Z,8.35
2019-02-23T09:25:35.551Z,8.41
2019-02-23T09:26:26.897Z,8.47
2019-02-23T09:27:24.781Z,8.44
2019-02-23T09:28:24.778Z,8.50
2019-02-23T09:29:24.771Z,8.55
2019-02-23T09:30:24.768Z,8.57
2019-02-23T09:31:24.761Z,8.42
2019-02-23T09:32:24.744Z,8.49
2019-02-23T09:33:24.731Z,8.47
2019-02-23T09:34:25.813Z,8.50
2019-02-23T09:35:24.715Z,8.44
2019-02-23T09:36:24.705Z,8.56
2019-02-23T09:37:24.695Z,8.53
2019-02-23T09:38:24.706Z,8.53
2019-02-23T09:39:24.680Z,8.50
2019-02-23T09:40:24.675Z,8.53
2019-02-23T09:41:24.653Z,8.57
2019-02-23T09:42:24.663Z,8.63
2019-02-23T09:43:24.646Z,8.70
2019-02-23T09:44:24.636Z,8.72
2019-02-23T09:45:24.625Z,8.77
2019-02-23T09:46:24.617Z,8.81
2019-02-23T09:47:24.637Z,8.81
2019-02-23T09:48:24.597Z,8.86
2019-02-23T09:49:24.590Z,8.75
2019-02-23T09:50:24.758Z,8.83
2019-02-23T09:51:24.590Z,8.81
2019-02-23T09:52:24.568Z,8.88
2019-02-23T09:53:24.555Z,8.74
2019-02-23T09:54:24.550Z,8.77
2019-02-23T09:55:24.542Z,8.74
2019-02-23T09:56:24.707Z,8.71
2019-02-23T09:57:25.009Z,8.80
2019-02-23T09:58:24.541Z,8.83
2019-02-23T09:59:25.246Z,8.78
2019-02-23T10:00:24.520Z,8.74
2019-02-23T10:01:24.529Z,8.80
2019-02-23T10:02:24.517Z,8.88
2019-02-23T10:03:24.468Z,8.81
2019-02-23T10:04:24.849Z,8.93
2019-02-23T10:05:24.475Z,8.98
2019-02-23T10:06:24.464Z,8.98
2019-02-23T10:07:24.460Z,8.92
2019-02-23T10:08:24.431Z,9.03
2019-02-23T10:09:24.581Z,8.99
2019-02-23T10:10:25.275Z,8.95
2019-02-23T10:11:25.180Z,8.98
2019-02-23T10:12:28.020Z,8.96
2019-02-23T10:13:24.386Z,8.98
2019-02-23T10:14:25.357Z,9.03
2019-02-23T10:15:24.431Z,9.08
2019-02-23T10:16:24.404Z,9.12
2019-02-23T10:17:25.954Z,9.09
2019-02-23T10:18:24.339Z,9.11
2019-02-23T10:19:24.335Z,9.12
2019-02-23T10:20:24.329Z,9.11
2019-02-23T10:21:24.389Z,9.18
2019-02-23T10:22:24.316Z,9.15
2019-02-23T10:23:24.301Z,9.26
2019-02-23T10:24:24.324Z,9.19
2019-02-23T10:25:25.497Z,9.29
2019-02-23T10:26:24.265Z,9.34
2019-02-23T10:27:24.898Z,9.36
2019-02-23T10:28:24.249Z,9.41
2019-02-23T10:29:25.415Z,9.37
2019-02-23T10:30:24.950Z,9.54
2019-02-23T10:31:24.228Z,9.48
2019-02-23T10:32:25.231Z,9.52
2019-02-23T10:33:24.216Z,9.55
2019-02-23T10:34:24.806Z,9.57
2019-02-23T10:35:25.485Z,9.48
2019-02-23T10:36:24.698Z,9.52
2019-02-23T10:37:24.192Z,9.57
2019-02-23T10:38:24.170Z,9.52
2019-02-23T10:39:24.161Z,9.51
2019-02-23T10:40:24.182Z,9.52
2019-02-23T10:41:24.169Z,9.67
2019-02-23T10:42:24.148Z,9.65
2019-02-23T10:43:24.136Z,9.66
2019-02-23T10:44:24.128Z,9.69
2019-02-23T10:45:24.114Z,9.75
2019-02-23T10:46:30.789Z,9.80
2019-02-23T10:47:24.101Z,9.70
2019-02-23T10:48:24.100Z,9.83
2019-02-23T10:49:24.073Z,9.84
2019-02-23T10:50:24.073Z,9.87
2019-02-23T10:51:24.067Z,9.80
2019-02-23T10:52:24.115Z,9.96
2019-02-23T10:53:32.567Z,9.94
2019-02-23T10:54:24.041Z,10.03
2019-02-23T10:55:24.039Z,10.10
2019-02-23T10:56:24.027Z,10.18
2019-02-23T10:57:24.021Z,10.21
2019-02-23T10:58:24.025Z,10.23
2019-02-23T10:59:24.001Z,10.26
2019-02-23T11:00:24.008Z,10.21
2019-02-23T11:01:23.982Z,10.30
2019-02-23T11:02:23.988Z,10.38
2019-02-23T11:03:23.968Z,10.35
2019-02-23T11:04:23.981Z,10.43
2019-02-23T11:05:23.965Z,10.41
2019-02-23T11:06:23.942Z,10.39
2019-02-23T11:07:23.937Z,10.49
2019-02-23T11:08:23.932Z,10.39
2019-02-23T11:09:23.922Z,10.41
2019-02-23T11:10:23.913Z,10.46
2019-02-23T11:11:23.915Z,10.35
2019-02-23T11:12:23.896Z,10.46
2019-02-23T11:13:23.891Z,10.48
2019-02-23T11:14:23.951Z,10.55
2019-02-23T11:15:23.876Z,10.54
2019-02-23T11:16:23.865Z,10.49
2019-02-23T11:17:23.856Z,10.61
2019-02-23T11:18:23.848Z,10.61
2019-02-23T11:19:23.847Z,10.67
2019-02-23T11:20:23.832Z,10.67
2019-02-23T11:21:23.823Z,10.55
2019-02-23T11:22:23.818Z,10.58
2019-02-23T11:23:23.814Z,10.61
2019-02-23T11:24:23.803Z,10.64
2019-02-23T11:25:23.806Z,10.68
2019-02-23T11:26:23.789Z,10.64
2019-02-23T11:27:23.782Z,10.68
2019-02-23T11:28:23.778Z,10.67
2019-02-23T11:29:23.764Z,10.67
2019-02-23T11:30:23.763Z,10.72
2019-02-23T11:31:23.751Z,10.68
2019-02-23T11:32:23.746Z,10.85
2019-02-23T11:33:24.305Z,10.78
2019-02-23T11:34:23.732Z,10.78
2019-02-23T11:35:23.720Z,10.83
2019-02-23T11:36:23.711Z,10.78
2019-02-23T11:37:24.304Z,10.86
2019-02-23T11:38:23.701Z,10.83
2019-02-23T11:39:23.686Z,10.91
2019-02-23T11:40:23.767Z,11.00
2019-02-23T11:41:23.676Z,11.04
2019-02-23T11:42:23.666Z,11.03
2019-02-23T11:43:23.662Z,10.97
2019-02-23T11:44:23.652Z,11.01
2019-02-23T11:45:23.650Z,11.08
2019-02-23T11:46:23.637Z,11.09
2019-02-23T11:47:23.633Z,11.13
2019-02-23T11:48:23.766Z,11.15
2019-02-23T11:49:23.619Z,11.12
2019-02-23T11:50:23.601Z,11.13
2019-02-23T11:51:24.319Z,11.16
2019-02-23T11:52:23.599Z,11.16
2019-02-23T11:53:23.581Z,11.19
2019-02-23T11:54:23.580Z,11.30
2019-02-23T11:55:23.572Z,11.31
2019-02-23T11:56:23.578Z,11.19
2019-02-23T11:57:23.562Z,11.15
2019-02-23T11:58:23.554Z,11.18
2019-02-23T11:59:23.547Z,11.23
2019-02-23T12:00:23.540Z,11.23
2019-02-23T12:01:23.531Z,11.15
2019-02-23T12:02:23.524Z,11.28
2019-02-23T12:03:23.519Z,11.25
2019-02-23T12:04:23.509Z,11.18
2019-02-23T12:05:23.509Z,11.20
2019-02-23T12:06:23.499Z,11.25
2019-02-23T12:07:23.488Z,11.19
2019-02-23T12:08:23.479Z,11.19
2019-02-23T12:09:23.479Z,11.12
2019-02-23T12:10:23.466Z,11.08
2019-02-23T12:11:23.475Z,11.23
2019-02-23T12:12:23.457Z,11.27
2019-02-23T12:13:23.443Z,11.22
2019-02-23T12:14:25.819Z,11.27
2019-02-23T12:15:23.430Z,11.25
2019-02-23T12:16:23.423Z,11.31
2019-02-23T12:17:23.420Z,11.30
2019-02-23T12:18:23.414Z,11.30
2019-02-23T12:19:23.407Z,11.46
2019-02-23T12:20:23.400Z,11.48
2019-02-23T12:21:23.385Z,11.52
2019-02-23T12:22:23.383Z,11.46
2019-02-23T12:23:23.380Z,11.56
2019-02-23T12:24:23.377Z,11.54
2019-02-23T12:25:23.372Z,11.62
2019-02-23T12:26:23.389Z,11.64
2019-02-23T12:27:23.355Z,11.61
2019-02-23T12:28:23.339Z,11.58
2019-02-23T12:29:23.344Z,11.58
2019-02-23T12:30:23.342Z,11.61
2019-02-23T12:31:23.332Z,11.66
2019-02-23T12:32:23.311Z,11.74
2019-02-23T12:33:23.312Z,11.80
2019-02-23T12:34:23.302Z,11.80
2019-02-23T12:35:23.302Z,11.80
2019-02-23T12:36:23.293Z,11.79
2019-02-23T12:37:23.281Z,11.80
2019-02-23T12:38:23.266Z,11.87
2019-02-23T12:39:23.265Z,11.88
2019-02-23T12:40:23.256Z,11.80
2019-02-23T12:41:23.251Z,11.82
2019-02-23T12:42:23.247Z,11.85
2019-02-23T12:43:23.248Z,11.89
2019-02-23T12:44:23.281Z,11.99
2019-02-23T12:45:23.278Z,12.04
2019-02-23T12:46:23.291Z,11.97
2019-02-23T12:47:23.292Z,11.85
2019-02-23T12:48:23.204Z,11.96
2019-02-23T12:49:23.200Z,12.08
2019-02-23T12:50:23.190Z,12.03
2019-02-23T12:51:23.195Z,12.10
2019-02-23T12:52:23.178Z,12.03
2019-02-23T12:53:23.169Z,12.04
2019-02-23T12:54:24.837Z,12.07
2019-02-23T12:55:23.164Z,12.11
2019-02-23T12:56:23.160Z,12.17
2019-02-23T12:57:23.145Z,12.10
2019-02-23T12:58:23.147Z,12.11
2019-02-23T12:59:23.133Z,12.14
2019-02-23T13:00:23.177Z,12.17
2019-02-23T13:01:23.121Z,12.15
2019-02-23T13:02:23.114Z,12.17
2019-02-23T13:03:23.110Z,12.22
2019-02-23T13:04:23.100Z,12.26
2019-02-23T13:06:24.835Z,12.15
2019-02-23T13:07:23.097Z,12.17
2019-02-23T13:08:23.076Z,12.23
2019-02-23T13:09:23.069Z,12.22
2019-02-23T13:10:23.071Z,12.22
2019-02-23T13:11:23.057Z,12.25
2019-02-23T13:12:23.049Z,12.23
2019-02-23T13:13:23.292Z,12.32
2019-02-23T13:14:23.039Z,12.32